createdAt,value
2023-04-02T16:16:34.720Z,34.55
2023-04-02T16:19:30.774Z,34.33
2023-04-02T16:22:23.210Z,34.17
2023-04-02T16:25:16.775Z,34.03
2023-04-02T16:27:56.754Z,33.86
2023-04-02T16:30:35.962Z,33.73
2023-04-02T16:33:12.324Z,33.63
2023-04-02T16:36:21.713Z,33.51
2023-04-02T16:39:37.671Z,33.24
2023-04-02T16:42:11.061Z,33.10
2023-04-02T16:44:47.117Z,32.98
2023-04-02T16:47:43.325Z,32.92
2023-04-02T16:50:31.156Z,32.77
2023-04-02T16:53:50.883Z,32.64
2023-04-02T16:56:48.361Z,32.48
2023-04-02T16:59:31.247Z,32.36
2023-04-02T17:02:26.157Z,32.29
2023-04-02T17:05:45.875Z,32.12
2023-04-02T17:08:23.840Z,31.93
2023-04-02T17:10:51.274Z,31.91
2023-04-02T17:13:21.541Z,31.84
2023-04-02T17:16:02.955Z,31.79
2023-04-02T17:18:33.172Z,31.72
2023-04-02T17:21:07.306Z,31.75
2023-04-02T17:23:55.300Z,31.71
2023-04-02T17:26:29.730Z,31.65
2023-04-02T17:29:00.684Z,31.60
2023-04-02T17:31:38.407Z,31.59
2023-04-02T17:34:32.317Z,31.51
2023-04-02T17:37:20.675Z,31.48
2023-04-02T17:40:13.113Z,31.41
2023-04-02T17:43:03.753Z,31.33
2023-04-02T17:45:37.618Z,31.32
2023-04-02T17:48:26.552Z,31.28
2023-04-02T17:51:11.137Z,31.16
2023-04-02T17:53:57.994Z,31.02
2023-04-02T17:56:36.055Z,31.01
2023-04-02T17:59:34.982Z,31.06
2023-04-02T18:02:26.959Z,30.96
2023-04-02T18:05:12.468Z,30.87
2023-04-02T18:08:08.005Z,30.84
2023-04-02T18:11:28.776Z,30.70
2023-04-02T18:14:40.037Z,30.61
2023-04-02T18:17:33.386Z,30.57
2023-04-02T18:20:27.708Z,30.62
2023-04-02T18:23:46.396Z,30.57
2023-04-02T18:26:31.606Z,30.46
2023-04-02T18:29:19.855Z,30.41
2023-04-02T18:32:02.489Z,30.37
2023-04-02T18:34:50.168Z,30.31
2023-04-02T18:37:32.842Z,30.28
2023-04-02T18:40:15.060Z,30.25
2023-04-02T18:43:00.836Z,30.20
2023-04-02T18:45:43.032Z,30.15
2023-04-02T18:48:21.864Z,30.03
2023-04-02T18:50:49.776Z,29.94
2023-04-02T18:53:24.474Z,29.91
2023-04-02T18:56:04.364Z,29.99
2023-04-02T18:58:49.734Z,29.91
2023-04-02T19:01:24.239Z,29.72
2023-04-02T19:03:55.443Z,29.81
2023-04-02T19:06:32.701Z,29.80
2023-04-02T19:09:03.714Z,29.74
2023-04-02T19:11:31.670Z,29.60
2023-04-02T19:14:09.734Z,29.54
2023-04-02T19:17:07.951Z,29.62
2023-04-02T19:19:46.601Z,29.53
2023-04-02T19:22:18.348Z,29.43
2023-04-02T19:25:24.254Z,29.60
2023-04-02T19:28:34.133Z,29.56
2023-04-02T19:31:24.652Z,29.55
2023-04-02T19:33:57.317Z,29.48
2023-04-02T19:36:51.240Z,29.46
2023-04-02T19:39:38.917Z,29.35
2023-04-02T19:42:25.529Z,29.36
2023-04-02T19:44:54.427Z,29.22
2023-04-02T19:47:22.800Z,29.32
2023-04-02T19:49:50.003Z,29.34
2023-04-02T19:52:17.360Z,29.31
2023-04-02T19:54:44.342Z,29.31
2023-04-02T19:57:15.965Z,29.35
2023-04-02T19:59:43.054Z,29.29
2023-04-02T20:02:11.569Z,29.23
2023-04-02T20:04:38.812Z,29.19
2023-04-02T20:07:06.220Z,29.07
2023-04-02T20:09:33.241Z,29.06
2023-04-02T20:12:00.326Z,29.08
2023-04-02T20:14:27.412Z,29.10
2023-04-02T20:16:54.526Z,29.06
2023-04-02T20:19:21.745Z,29.12
2023-04-02T20:21:48.782Z,29.10
2023-04-02T20:24:15.991Z,29.08
2023-04-02T20:26:43.077Z,29.06
2023-04-02T20:29:10.133Z,29.09
2023-04-02T20:31:37.309Z,29.02
2023-04-02T20:34:05.798Z,29.03
2023-04-02T20:36:33.038Z,29.03
2023-04-02T20:39:00.173Z,29.01
2023-04-02T20:41:27.776Z,29.00
2023-04-02T20:43:54.829Z,28.99
2023-04-02T20:46:23.072Z,28.97
2023-04-02T20:48:50.146Z,28.90
2023-04-02T20:51:17.646Z,28.93
2023-04-02T20:53:44.987Z,28.91
2023-04-02T20:56:17.162Z,28.79
2023-04-02T20:58:44.802Z,28.73
2023-04-02T21:01:24.529Z,28.68
